Euskara    
Meteorología y climatología de Navarra
Datos de la estación - Meteo Navarra

Estación de Eltzaburu GN

Altitud 588 m.


Datos desde el 14/01/2021 hasta el 15/01/2021 en horario solar
Los datos son PROVISIONALES

Anterior Página 1 de 1 Siguiente Descargar: Formato para Excel 2000 o superior   Formato csv   Formato para OpenOffice Calc
Fecha Temperatura Humedad relativa Radiación global Insolación Precipitación Vel. viento 10 m Vel. viento 10 m Dir. viento 10 m
°C % W/m² s l/m² m/s km/h °
14/01/2021 0:00 3.9 98 0.0 0 0.0 1.1 4.0 352
14/01/2021 0:10 4.1 98 0.0 0 0.0 1.0 3.5 4
14/01/2021 0:20 4.2 98 0.0 0 0.0 0.9 3.1 342
14/01/2021 0:30 4.3 97 0.0 0 0.0 1.1 3.9 350
14/01/2021 0:40 4.3 97 0.0 0 0.0 1.2 4.4 331
14/01/2021 0:50 4.5 96 0.0 0 0.0 1.6 5.9 343
14/01/2021 1:00 4.6 94 0.0 0 0.0 1.5 5.2 332
14/01/2021 1:10 4.7 93 0.0 0 0.0 1.4 4.9 342
14/01/2021 1:20 4.8 93 0.0 0 0.0 1.2 4.3 344
14/01/2021 1:30 4.9 93 0.0 0 0.0 0.7 2.4 343
14/01/2021 1:40 4.8 93 0.0 0 0.0 1.0 3.5 330
14/01/2021 1:50 4.8 93 0.0 0 0.0 1.3 4.6 337
14/01/2021 2:00 4.8 93 0.0 0 0.0 1.1 4.0 332
14/01/2021 2:10 4.8 91 0.0 0 0.0 1.7 6.2 326
14/01/2021 2:20 5.0 90 0.0 0 0.0 1.4 5.2 333
14/01/2021 2:30 5.1 89 0.0 0 0.0 0.8 3.0 337
14/01/2021 2:40 5.2 88 0.0 0 0.0 2.2 8.1 321
14/01/2021 2:50 5.1 89 0.0 0 0.0 1.9 6.8 318
14/01/2021 3:00 5.0 90 0.0 0 0.0 2.5 9.0 319
14/01/2021 3:10 5.0 90 0.0 0 0.0 2.7 9.7 314
14/01/2021 3:20 5.1 89 0.0 0 0.0 3.0 10.7 318
14/01/2021 3:30 5.0 89 0.0 0 0.0 2.5 8.9 318
14/01/2021 3:40 5.0 89 0.0 0 0.0 2.8 9.9 320
14/01/2021 3:50 5.0 89 0.0 0 0.0 2.3 8.3 324
14/01/2021 4:00 5.0 88 0.0 0 0.0 2.0 7.0 315
14/01/2021 4:10 5.0 87 0.0 0 0.0 1.7 6.0 317
14/01/2021 4:20 5.0 87 0.0 0 0.0 1.9 6.9 312
14/01/2021 4:30 5.0 88 0.0 0 0.0 2.3 8.1 322
14/01/2021 4:40 4.9 89 0.0 0 0.0 2.3 8.2 315
14/01/2021 4:50 4.8 89 0.0 0 0.0 2.5 9.0 315
14/01/2021 5:00 4.8 89 0.0 0 0.0 2.3 8.1 309
14/01/2021 5:10 4.9 89 0.0 0 0.0 1.8 6.6 317
14/01/2021 5:20 4.8 89 0.0 0 0.0 2.7 9.6 321
14/01/2021 5:30 5.0 88 0.0 0 0.0 2.6 9.4 316
14/01/2021 5:40 4.9 88 0.0 0 0.0 2.1 7.6 315
14/01/2021 5:50 4.9 88 0.0 0 0.0 2.4 8.6 318
14/01/2021 6:00 5.0 87 0.0 0 0.0 1.6 5.8 321
14/01/2021 6:10 5.0 86 0.0 0 0.0 1.7 6.1 316
14/01/2021 6:20 5.0 86 0.0 0 0.0 1.4 4.9 313
14/01/2021 6:30 5.0 86 0.0 0 0.0 1.1 3.8 314
14/01/2021 6:40 5.0 86 0.0 0 0.0 1.0 3.5 325
14/01/2021 6:50 5.0 87 0.0 0 0.0 1.7 6.0 311
14/01/2021 7:00 5.0 87 0.0 0 0.0 1.5 5.3 302
14/01/2021 7:10 4.8 88 0.0 0 0.0 1.7 6.1 303
14/01/2021 7:20 4.9 87 0.0 0 0.0 1.4 4.9 323
14/01/2021 7:30 5.1 86 0.0 0 0.0 2.0 7.3 314
14/01/2021 7:40 5.1 85 0.0 0 0.0 2.3 8.2 311
14/01/2021 7:50 5.2 85 0.0 0 0.0 2.1 7.5 312
14/01/2021 8:00 5.1 85 0.0 0 0.0 2.3 8.2 317
14/01/2021 8:10 5.2 84 0.0 0 0.0 2.5 9.0 324
14/01/2021 8:20 5.2 85 0.0 0 0.0 1.6 5.8 325
14/01/2021 8:30 5.2 86 0.0 0 0.0 2.3 8.2 335
14/01/2021 8:40 5.1 86 0.0 0 0.0 2.0 7.2 332
14/01/2021 8:50 5.0 87 18.7 0 0.0 2.2 8.0 341
14/01/2021 9:00 5.2 86 20.3 0 0.0 1.9 7.0 328
14/01/2021 9:10 5.1 86 22.2 0 0.0 0.9 3.2 322
14/01/2021 9:20 5.1 86 21.2 0 0.0 1.5 5.3 340
14/01/2021 9:30 5.2 84 28.8 0 0.0 2.9 10.6 325
14/01/2021 9:40 5.2 84 42.5 0 0.0 2.7 9.6 323
14/01/2021 9:50 5.3 83 43.6 0 0.0 1.7 6.2 337
14/01/2021 10:00 5.4 82 54.5 0 0.0 2.1 7.7 338
14/01/2021 10:10 5.5 80 74.9 0 0.0 2.2 7.8 333
14/01/2021 10:20 5.6 80 64.5 0 0.0 2.3 8.3 337
14/01/2021 10:30 5.6 81 75.0 0 0.0 2.9 10.3 320
14/01/2021 10:40 5.6 81 77.2 0 0.0 2.6 9.2 330
14/01/2021 10:50 5.7 81 103.3 0 0.0 2.3 8.4 327
14/01/2021 11:00 5.8 79 104.6 0 0.0 1.8 6.3 320
14/01/2021 11:10 5.9 78 100.9 0 0.0 1.7 6.0 327
14/01/2021 11:20 6.0 79 101.2 0 0.0 2.1 7.4 317
14/01/2021 11:30 6.0 79 101.4 0 0.0 1.7 6.0 326
14/01/2021 11:40 6.1 79 124.4 0 0.0 2.3 8.2 344
14/01/2021 11:50 6.2 78 109.7 0 0.0 1.7 6.2 339
14/01/2021 12:00 6.2 78 106.7 0 0.0 2.2 7.8 335
14/01/2021 12:10 6.3 78 113.2 0 0.0 2.0 7.1 342
14/01/2021 12:20 6.4 78 109.8 0 0.0 2.2 8.0 325
14/01/2021 12:30 6.3 76 118.2 0 0.0 1.3 4.6 340
14/01/2021 12:40 6.4 76 149.7 16 0.0 1.7 6.3 327
14/01/2021 12:50 6.5 76 148.5 0 0.0 2.4 8.5 324
14/01/2021 13:00 6.6 76 154.2 0 0.0 1.3 4.8 327
14/01/2021 13:10 6.6 76 143.6 0 0.0 2.4 8.7 338
14/01/2021 13:20 6.6 76 121.3 0 0.0 3.1 11.0 337
14/01/2021 13:30 6.5 77 129.6 0 0.0 1.8 6.4 301
14/01/2021 13:40 6.5 77 154.8 0 0.0 2.7 9.7 330
14/01/2021 13:50 6.7 77 150.9 0 0.0 2.4 8.7 310
14/01/2021 14:00 6.5 78 112.7 0 0.0 2.6 9.3 312
14/01/2021 14:10 6.3 79 145.1 0 0.0 2.2 7.8 318
14/01/2021 14:20 6.3 80 79.9 0 0.0 2.3 8.2 310
14/01/2021 14:30 6.2 81 68.8 0 0.0 1.5 5.4 288
14/01/2021 14:40 6.1 82 59.5 0 0.0 2.0 7.1 318
14/01/2021 14:50 6.1 83 63.9 0 0.0 1.5 5.5 309
14/01/2021 15:00 6.1 84 66.6 0 0.0 1.4 5.0 297
14/01/2021 15:10 6.1 85 68.1 0 0.0 1.4 4.9 287
14/01/2021 15:20 5.9 86 39.8 0 0.0 1.5 5.4 276
14/01/2021 15:30 5.7 87 34.7 0 0.0 1.8 6.6 287
14/01/2021 15:40 5.6 89 46.1 0 0.0 1.5 5.3 282
14/01/2021 15:50 5.5 90 33.1 0 0.0 1.6 5.8 280
14/01/2021 16:00 5.4 91 17.7 0 0.0 1.7 6.2 263
14/01/2021 16:10 5.2 92 4.1 0 0.0 1.7 6.0 256
14/01/2021 16:20 5.1 93 0.0 0 0.0 1.6 5.9 257
14/01/2021 16:30 5.1 93 0.0 0 0.0 1.7 6.0 264
14/01/2021 16:40 5.0 94 0.0 0 0.0 1.3 4.5 272
14/01/2021 16:50 5.0 95 0.0 0 0.0 1.4 4.9 258
14/01/2021 17:00 5.0 96 0.0 0 0.0 0.7 2.6 269
14/01/2021 17:10 5.0 96 0.0 0 0.0 0.3 1.2 132
14/01/2021 17:20 5.0 96 0.0 0 0.0 0.7 2.5 114
14/01/2021 17:30 5.0 96 0.0 0 0.1 0.1 0.5 90
14/01/2021 17:40 5.1 96 0.0 0 0.1 0.8 3.0 307
14/01/2021 17:50 5.1 97 0.0 0 0.1 1.0 3.5 306
14/01/2021 18:00 5.1 97 0.0 0 0.1 1.0 3.7 300
14/01/2021 18:10 5.1 97 0.0 0 0.1 1.5 5.4 273
14/01/2021 18:20 5.2 97 0.0 0 0.1 1.5 5.4 272
14/01/2021 18:30 5.3 98 0.0 0 0.1 1.5 5.5 271
14/01/2021 18:40 5.7 98 0.0 0 0.1 1.5 5.5 267
14/01/2021 18:50 5.6 97 0.0 0 0.2 0.9 3.3 263
14/01/2021 19:00 5.7 97 0.0 0 0.0 1.0 3.6 247
14/01/2021 19:10 5.8 97 0.0 0 0.2 0.9 3.1 238
14/01/2021 19:20 6.1 97 0.0 0 0.1 1.3 4.8 305
14/01/2021 19:30 6.7 96 0.0 0 0.2 2.0 7.1 298
14/01/2021 19:40 6.8 94 0.0 0 0.3 2.0 7.2 295
14/01/2021 19:50 7.2 91 0.0 0 0.0 2.7 9.6 321
14/01/2021 20:00 7.4 89 0.0 0 0.1 2.4 8.7 315
14/01/2021 20:10 7.5 88 0.0 0 0.0 3.8 13.8 324
14/01/2021 20:20 7.4 88 0.0 0 0.1 2.8 10.2 310
14/01/2021 20:30 7.4 87 0.0 0 0.0 2.8 9.9 323
14/01/2021 20:40 7.3 85 0.0 0 0.0 2.9 10.5 329
14/01/2021 20:50 7.2 88 0.0 0 0.0 2.8 10.2 335
14/01/2021 21:00 7.1 90 0.0 0 0.2 2.8 10.1 339
14/01/2021 21:10 7.0 91 0.0 0 0.1 2.3 8.3 325
14/01/2021 21:20 7.0 89 0.0 0 0.1 2.2 7.9 309
14/01/2021 21:30 7.0 88 0.0 0 0.1 2.7 9.6 317
14/01/2021 21:40 6.8 90 0.0 0 0.0 2.1 7.7 340
14/01/2021 21:50 6.9 89 0.0 0 0.1 2.8 10.0 333
14/01/2021 22:00 6.8 88 0.0 0 0.0 2.5 8.9 334
14/01/2021 22:10 6.6 88 0.0 0 0.1 2.9 10.3 319
14/01/2021 22:20 6.6 89 0.0 0 0.1 2.7 9.8 317
14/01/2021 22:30 6.5 86 0.0 0 0.0 2.6 9.2 326
14/01/2021 22:40 6.5 83 0.0 0 0.0 2.6 9.3 327
14/01/2021 22:50 6.5 80 0.0 0 0.0 3.5 12.6 341
14/01/2021 23:00 6.3 80 0.0 0 0.0 2.7 9.7 333
14/01/2021 23:10 6.3 77 0.0 0 0.0 2.1 7.6 332
14/01/2021 23:20 6.2 81 0.0 0 0.0 1.7 6.2 313
14/01/2021 23:30 6.0 83 0.0 0 0.0 0.8 2.7 322
14/01/2021 23:40 5.6 87 0.0 0 0.0 0.7 2.6 359
14/01/2021 23:50 5.4 88 0.0 0 0.0 0.8 3.0 356
Anterior Página 1 de 1 Siguiente

NOTA: Tipo de datos según el color:
   - Valores diarios o 10 minutos correctos
   - Valores diarios calculados a partir de un número de datos 10 minutos menor que 144 y mayor que 120, o de un número de datos semihorarios menor que 48 y mayor que 40 (caso de las estaciones de INTIA Y Ministerio)
   - Valores diez minutos estimados


Contacto        Enlaces        Aviso legal